Time;durP1;ratioP1;P1;durP2;ratioP2;P2;SDS_P1;SDS_P2;PMS_P1;PMS_P2;Temp;Humidity;BMP_temperature;BMP_pressure;BME280_temperature;BME280_humidity;BME280_pressure;Samples;Min_cycle;Max_cycle;Signal;HPM_P1;HPM_P2
2022/11/23 00:00:29;;;;;;;0.70;0.70;;;5.60;99.90;;;;;;5017718;28;20659;-87
2022/11/23 00:02:59;;;;;;;0.73;0.73;;;5.60;99.90;;;;;;5033330;28;20180;-88
2022/11/23 00:05:27;;;;;;;0.60;0.60;;;5.60;99.90;;;;;;5033937;28;20232;-95
2022/11/23 00:07:52;;;;;;;0.70;0.70;;;5.70;99.90;;;;;;5035114;28;20183;-96
2022/11/23 00:10:18;;;;;;;0.60;0.60;;;5.70;99.90;;;;;;5035043;28;20253;-91
2022/11/23 00:12:45;;;;;;;0.70;0.70;;;5.70;99.90;;;;;;5036870;28;20177;-95
2022/11/23 00:15:14;;;;;;;0.70;0.70;;;5.70;99.90;;;;;;5022989;28;20180;-92
2022/11/23 00:17:40;;;;;;;1.20;0.90;;;5.80;99.90;;;;;;5040354;28;20178;-95
2022/11/23 00:20:09;;;;;;;0.70;0.70;;;5.80;99.90;;;;;;5041249;28;20249;-95
2022/11/23 00:22:35;;;;;;;0.73;0.73;;;5.80;99.90;;;;;;5042856;28;20169;-84
2022/11/23 00:25:01;;;;;;;0.70;0.70;;;5.70;99.90;;;;;;5042286;28;20239;-87
2022/11/23 00:27:26;;;;;;;0.70;0.70;;;5.70;99.90;;;;;;5038199;28;20200;-88
2022/11/23 00:29:52;;;;;;;0.83;0.77;;;5.70;99.90;;;;;;5038753;28;20274;-93
2022/11/23 00:32:18;;;;;;;0.73;0.73;;;5.70;99.90;;;;;;5021387;28;20177;-91
2022/11/23 00:34:44;;;;;;;0.83;0.83;;;5.80;99.90;;;;;;5025334;28;20188;-92
2022/11/23 00:37:09;;;;;;;0.70;0.70;;;5.80;99.90;;;;;;5056379;28;20170;-90
2022/11/23 00:39:35;;;;;;;0.63;0.63;;;5.80;99.90;;;;;;5049791;28;20203;-95
2022/11/23 00:42:01;;;;;;;0.70;0.70;;;5.80;99.90;;;;;;5022563;28;20181;-94
2022/11/23 00:44:27;;;;;;;0.50;0.50;;;5.90;99.90;;;;;;5039925;28;20275;-92
2022/11/23 00:46:52;;;;;;;0.50;0.50;;;5.80;99.90;;;;;;5021637;28;20193;-90
2022/11/23 00:49:18;;;;;;;0.70;0.70;;;5.80;99.90;;;;;;5037821;28;20177;-83
2022/11/23 00:51:44;;;;;;;0.60;0.60;;;5.80;99.90;;;;;;5020408;28;20189;-85
2022/11/23 00:54:10;;;;;;;0.67;0.67;;;5.70;99.90;;;;;;5037220;28;20173;-85
2022/11/23 00:56:35;;;;;;;0.50;0.50;;;5.70;99.90;;;;;;5039978;28;20173;-88
2022/11/23 00:59:02;;;;;;;0.70;0.70;;;5.70;99.90;;;;;;5030177;28;20165;-85
2022/11/23 01:01:33;;;;;;;0.70;0.70;;;5.60;99.90;;;;;;5047603;28;20240;-86
2022/11/23 01:04:01;;;;;;;0.70;0.70;;;5.60;99.90;;;;;;5040430;28;20153;-89
2022/11/23 01:06:29;;;;;;;0.50;0.50;;;5.60;99.90;;;;;;5025637;28;20183;-86
2022/11/23 01:08:57;;;;;;;0.50;0.50;;;5.70;99.90;;;;;;5043702;28;20165;-84
2022/11/23 01:11:26;;;;;;;0.63;0.63;;;5.70;99.90;;;;;;5027861;28;20184;-89
2022/11/23 01:13:52;;;;;;;0.63;0.63;;;5.70;99.90;;;;;;5037374;28;20251;-86
2022/11/23 01:16:22;;;;;;;0.77;0.77;;;5.70;99.90;;;;;;5041389;28;20191;-88
2022/11/23 01:19:01;;;;;;;0.60;0.60;;;5.70;99.90;;;;;;5024170;28;20547;-90
2022/11/23 01:21:28;;;;;;;0.60;0.60;;;5.70;99.90;;;;;;5059716;28;20205;-84
2022/11/23 01:23:54;;;;;;;0.60;0.60;;;5.70;99.90;;;;;;5059542;28;20173;-84
2022/11/23 01:26:21;;;;;;;0.60;0.60;;;5.70;99.90;;;;;;5028825;28;20184;-96
2022/11/23 01:28:47;;;;;;;0.40;0.40;;;5.80;99.90;;;;;;5041156;28;20175;-96
2022/11/23 01:31:18;;;;;;;0.63;0.63;;;5.70;99.90;;;;;;5040344;28;20177;-96
2022/11/23 01:33:44;;;;;;;0.70;0.70;;;5.80;99.90;;;;;;5040906;28;20233;-96
2022/11/23 01:36:19;;;;;;;0.70;0.70;;;5.80;99.90;;;;;;5039802;28;20951;-95
2022/11/23 01:38:46;;;;;;;0.80;0.80;;;5.80;99.90;;;;;;5038733;28;20319;-96
2022/11/23 01:41:17;;;;;;;0.63;0.63;;;5.80;99.90;;;;;;5038019;28;20704;-95
2022/11/23 01:43:43;;;;;;;1.00;1.00;;;5.90;99.90;;;;;;5037123;28;20162;-85
2022/11/23 01:46:10;;;;;;;0.83;0.83;;;6.00;99.90;;;;;;5036641;28;20210;-87
2022/11/23 01:48:56;;;;;;;0.73;0.73;;;6.10;99.90;;;;;;5036006;28;20212;-88
2022/11/23 01:51:27;;;;;;;1.10;1.10;;;6.10;99.90;;;;;;5019552;28;20253;-85
2022/11/23 01:53:56;;;;;;;1.20;1.20;;;6.10;99.90;;;;;;5039727;28;20228;-87
2022/11/23 01:56:30;;;;;;;1.27;1.27;;;6.20;99.90;;;;;;5039218;28;20647;-84
2022/11/23 01:59:00;;;;;;;2.00;1.90;;;6.20;99.90;;;;;;5037136;28;20167;-84
2022/11/23 02:01:26;;;;;;;2.27;2.17;;;6.20;99.90;;;;;;5056498;28;20165;-89
2022/11/23 02:03:57;;;;;;;4.57;3.47;;;6.20;99.90;;;;;;5054897;28;20190;-94
2022/11/23 02:06:23;;;;;;;3.60;3.30;;;6.20;99.90;;;;;;5050894;28;20178;-95
2022/11/23 02:08:50;;;;;;;3.80;3.40;;;6.10;99.90;;;;;;5037045;28;20182;-95
2022/11/23 02:11:17;;;;;;;4.17;3.87;;;6.10;99.90;;;;;;5037676;28;20168;-92
2022/11/23 02:13:46;;;;;;;3.70;3.40;;;6.00;99.90;;;;;;5018903;28;20174;-95
2022/11/23 02:16:13;;;;;;;3.67;3.40;;;5.90;99.90;;;;;;5036616;28;20197;-96
2022/11/23 02:18:42;;;;;;;5.00;3.77;;;6.00;99.90;;;;;;5048881;28;20152;-85
2022/11/23 02:21:09;;;;;;;4.00;3.70;;;6.00;99.90;;;;;;5044205;28;20236;-95
2022/11/23 02:23:46;;;;;;;3.73;3.53;;;6.00;99.90;;;;;;5019929;28;20204;-94
2022/11/23 02:26:19;;;;;;;3.60;3.40;;;6.00;99.90;;;;;;5043558;28;20627;-87
2022/11/23 02:28:52;;;;;;;3.50;3.20;;;6.00;99.90;;;;;;5050904;28;20156;-85
2022/11/23 02:31:18;;;;;;;3.80;3.50;;;5.90;99.90;;;;;;5047243;28;20153;-84
2022/11/23 02:33:44;;;;;;;3.00;2.80;;;5.90;99.90;;;;;;5005915;28;20229;-83
2022/11/23 02:36:40;;;;;;;3.57;3.37;;;6.00;99.90;;;;;;5015098;28;20197;-84
2022/11/23 02:39:16;;;;;;;3.70;3.40;;;5.90;99.90;;;;;;5002141;28;20182;-93
2022/11/23 02:41:53;;;;;;;3.53;3.23;;;5.90;99.90;;;;;;5014018;28;20182;-90
2022/11/23 02:44:36;;;;;;;3.37;3.07;;;6.00;99.90;;;;;;4995745;28;20278;-95
2022/11/23 02:47:04;;;;;;;3.13;2.93;;;6.00;99.90;;;;;;4997260;28;20199;-94
2022/11/23 02:49:29;;;;;;;3.20;3.00;;;6.00;99.90;;;;;;4996936;28;20168;-92
2022/11/23 02:51:55;;;;;;;3.30;3.00;;;6.00;99.90;;;;;;5011187;28;20216;-85
2022/11/23 02:54:21;;;;;;;3.30;3.00;;;5.90;99.90;;;;;;5009857;28;20254;-85
2022/11/23 02:56:47;;;;;;;2.90;2.70;;;6.00;99.90;;;;;;5018319;28;20176;-86
2022/11/23 02:59:13;;;;;;;2.70;2.50;;;6.00;99.90;;;;;;5017967;28;20173;-89
2022/11/23 03:01:39;;;;;;;2.70;2.50;;;6.00;99.90;;;;;;5007644;28;20178;-95
2022/11/23 03:04:06;;;;;;;2.50;2.40;;;6.00;99.90;;;;;;5013244;28;20192;-96
2022/11/23 03:06:32;;;;;;;2.83;2.57;;;6.00;99.90;;;;;;5017666;28;20169;-90
2022/11/23 03:08:57;;;;;;;2.90;2.70;;;6.00;99.90;;;;;;5007979;28;20233;-91
2022/11/23 03:11:23;;;;;;;2.73;2.53;;;6.00;99.90;;;;;;4996941;28;20242;-83
2022/11/23 03:13:49;;;;;;;2.70;2.60;;;6.00;99.90;;;;;;4995341;28;20179;-96
2022/11/23 03:16:15;;;;;;;2.80;2.60;;;6.00;99.90;;;;;;4995393;28;20181;-95
2022/11/23 03:18:42;;;;;;;2.70;2.50;;;6.00;99.90;;;;;;4997490;28;20176;-93
2022/11/23 03:21:08;;;;;;;2.73;2.63;;;6.00;99.90;;;;;;5006878;28;20176;-96
2022/11/23 03:23:34;;;;;;;2.90;2.70;;;6.00;99.90;;;;;;4999996;28;20192;-93
2022/11/23 03:26:01;;;;;;;2.87;2.67;;;6.00;99.90;;;;;;4997152;28;20694;-94
2022/11/23 03:28:26;;;;;;;2.97;2.80;;;6.00;99.90;;;;;;4997651;28;20263;-89
2022/11/23 03:30:53;;;;;;;3.10;2.90;;;6.00;99.90;;;;;;4993845;28;20611;-87
2022/11/23 03:33:19;;;;;;;2.93;2.83;;;6.00;99.90;;;;;;5012213;28;20615;-87
2022/11/23 03:35:45;;;;;;;3.00;2.80;;;6.00;99.90;;;;;;5034249;28;20218;-91
2022/11/23 03:38:12;;;;;;;2.57;2.47;;;5.90;99.90;;;;;;5016777;28;20186;-84
2022/11/23 03:40:38;;;;;;;3.07;2.87;;;5.90;99.90;;;;;;5034883;28;20196;-92
2022/11/23 03:43:04;;;;;;;2.50;2.40;;;6.00;99.90;;;;;;5033356;28;20630;-83
2022/11/23 03:45:30;;;;;;;2.90;2.70;;;5.90;99.90;;;;;;5033046;28;20204;-83
2022/11/23 03:47:56;;;;;;;2.90;2.80;;;5.90;99.90;;;;;;5032585;28;20198;-82
2022/11/23 03:50:22;;;;;;;2.70;2.60;;;5.90;99.90;;;;;;5033333;28;20216;-82
2022/11/23 03:52:49;;;;;;;2.60;2.50;;;5.90;99.90;;;;;;5042554;28;20196;-86
2022/11/23 03:55:15;;;;;;;3.50;2.80;;;5.90;99.90;;;;;;5040749;28;20263;-93
2022/11/23 03:57:41;;;;;;;2.73;2.63;;;5.90;99.90;;;;;;5017920;28;20177;-92
2022/11/23 04:00:08;;;;;;;2.80;2.70;;;5.90;99.90;;;;;;5044256;28;20274;-83
2022/11/23 04:02:34;;;;;;;3.07;2.87;;;6.00;99.90;;;;;;5047291;28;20184;-85
2022/11/23 04:05:00;;;;;;;2.60;2.50;;;5.90;99.90;;;;;;5055096;28;20211;-83
2022/11/23 04:07:26;;;;;;;2.60;2.50;;;5.90;99.90;;;;;;5037488;28;20179;-94
2022/11/23 04:09:52;;;;;;;3.03;2.83;;;5.90;99.90;;;;;;5035343;28;20176;-94
2022/11/23 04:12:18;;;;;;;2.70;2.60;;;5.90;99.90;;;;;;5038628;28;20172;-93
2022/11/23 04:14:44;;;;;;;2.67;2.57;;;5.90;99.90;;;;;;5050204;28;20165;-91
2022/11/23 04:17:10;;;;;;;2.73;2.63;;;5.90;99.90;;;;;;5043983;28;20176;-96
2022/11/23 04:19:36;;;;;;;3.07;2.87;;;5.90;99.90;;;;;;5036476;28;20178;-96
2022/11/23 04:22:02;;;;;;;2.90;2.70;;;5.90;99.90;;;;;;5018494;28;20347;-95
2022/11/23 04:24:27;;;;;;;3.03;2.90;;;5.90;99.90;;;;;;5035278;28;20196;-95
2022/11/23 04:26:53;;;;;;;3.67;3.37;;;5.90;99.90;;;;;;5038199;28;20190;-95
2022/11/23 04:29:19;;;;;;;3.63;3.33;;;5.90;99.90;;;;;;5018085;28;20208;-95
2022/11/23 04:31:46;;;;;;;3.90;3.60;;;5.90;99.90;;;;;;5057120;28;20180;-90
2022/11/23 04:34:12;;;;;;;4.07;3.73;;;5.90;99.90;;;;;;5058199;28;20216;-89
2022/11/23 04:36:39;;;;;;;5.00;4.07;;;6.00;99.90;;;;;;5041304;28;20240;-88
2022/11/23 04:39:06;;;;;;;4.20;3.73;;;5.90;99.90;;;;;;5056633;28;20188;-96
2022/11/23 04:41:32;;;;;;;4.17;3.87;;;6.00;99.90;;;;;;5033342;28;20195;-96
2022/11/23 04:43:59;;;;;;;5.10;4.17;;;6.00;99.90;;;;;;5055219;28;20201;-95
2022/11/23 04:46:25;;;;;;;4.33;3.93;;;5.90;99.90;;;;;;5023279;28;20196;-88
2022/11/23 04:48:50;;;;;;;4.27;3.93;;;5.80;99.90;;;;;;5041256;28;20607;-81
2022/11/23 04:51:16;;;;;;;3.90;3.60;;;5.90;99.90;;;;;;5041252;28;20176;-82
2022/11/23 04:53:42;;;;;;;4.20;3.90;;;5.90;99.90;;;;;;5052775;28;20182;-85
2022/11/23 04:58:43;;;;;;;5.27;3.93;;;6.00;99.90;;;;;;5086695;22;20246;-94
2022/11/23 05:01:09;;;;;;;4.20;3.90;;;5.90;99.90;;;;;;5021668;28;20184;-91
2022/11/23 05:03:35;;;;;;;4.43;4.03;;;5.90;99.90;;;;;;5037758;28;20244;-83
2022/11/23 05:06:03;;;;;;;5.63;4.30;;;5.80;99.90;;;;;;5040786;28;20708;-90
2022/11/23 05:08:29;;;;;;;4.20;3.90;;;5.80;99.90;;;;;;5042890;28;20229;-95
2022/11/23 05:10:55;;;;;;;3.83;3.53;;;5.90;99.90;;;;;;5041562;28;20223;-94
2022/11/23 05:13:21;;;;;;;4.50;4.10;;;5.90;99.90;;;;;;5030371;28;20180;-91
2022/11/23 05:15:47;;;;;;;5.77;4.17;;;6.00;99.90;;;;;;5001245;28;20587;-94
2022/11/23 05:18:13;;;;;;;4.30;3.97;;;5.90;99.90;;;;;;5019852;28;20174;-95
2022/11/23 05:20:39;;;;;;;4.13;3.83;;;5.90;99.90;;;;;;5000659;28;20315;-95
2022/11/23 05:23:05;;;;;;;5.20;4.70;;;5.90;99.90;;;;;;5019783;28;20189;-94
2022/11/23 05:25:31;;;;;;;4.60;4.20;;;5.90;99.90;;;;;;5019844;28;20212;-91
2022/11/23 05:27:57;;;;;;;4.57;4.17;;;5.90;99.90;;;;;;5022421;28;20196;-93
2022/11/23 05:30:23;;;;;;;4.33;4.00;;;5.90;99.90;;;;;;5019323;28;20246;-93
2022/11/23 05:32:49;;;;;;;4.80;4.40;;;5.90;99.90;;;;;;5001256;28;20183;-93
2022/11/23 05:35:15;;;;;;;4.00;3.70;;;5.90;99.90;;;;;;5001528;28;20190;-83
2022/11/23 05:37:41;;;;;;;4.60;4.20;;;5.90;99.90;;;;;;5020392;28;20179;-86
2022/11/23 05:40:08;;;;;;;4.00;3.67;;;5.90;99.90;;;;;;5002420;28;20184;-82
2022/11/23 05:42:34;;;;;;;4.30;3.90;;;5.90;99.90;;;;;;5024092;28;20264;-82
2022/11/23 05:45:00;;;;;;;4.00;3.70;;;5.90;99.90;;;;;;5002737;28;20200;-81
2022/11/23 05:47:26;;;;;;;4.27;3.87;;;5.90;99.90;;;;;;5023717;28;20173;-93
2022/11/23 05:49:52;;;;;;;4.23;3.87;;;5.90;99.90;;;;;;5006308;28;20188;-91
2022/11/23 05:52:18;;;;;;;3.83;3.53;;;6.00;99.90;;;;;;5033707;28;20150;-83
2022/11/23 05:54:44;;;;;;;4.27;3.33;;;6.00;99.90;;;;;;5023996;28;20173;-91
2022/11/23 05:57:16;;;;;;;4.03;3.73;;;6.00;99.90;;;;;;5007804;28;20238;-89
2022/11/23 05:59:42;;;;;;;3.93;3.63;;;6.00;99.90;;;;;;5024444;28;20192;-95
2022/11/23 06:02:08;;;;;;;4.37;4.00;;;6.00;99.90;;;;;;5020326;28;20182;-96
2022/11/23 06:04:34;;;;;;;4.53;4.17;;;5.90;99.90;;;;;;5003344;28;20215;-93
2022/11/23 06:07:00;;;;;;;4.57;4.17;;;6.00;99.90;;;;;;5035377;28;20235;-94
2022/11/23 06:09:29;;;;;;;4.23;3.93;;;5.90;99.90;;;;;;5017209;28;20214;-90
2022/11/23 06:11:55;;;;;;;4.17;3.83;;;5.90;99.90;;;;;;5016594;28;20193;-94
2022/11/23 06:14:21;;;;;;;4.60;4.20;;;6.00;99.90;;;;;;5016298;28;20181;-94
2022/11/23 06:16:47;;;;;;;5.73;4.60;;;6.00;99.90;;;;;;5017050;28;20261;-94
2022/11/23 06:19:13;;;;;;;4.60;4.20;;;6.00;99.90;;;;;;5017236;28;20211;-91
2022/11/23 06:21:39;;;;;;;4.90;4.10;;;6.00;99.90;;;;;;5034116;28;20180;-86
2022/11/23 06:24:05;;;;;;;4.73;4.33;;;6.00;99.90;;;;;;5013431;28;20518;-93
2022/11/23 06:26:31;;;;;;;5.00;4.50;;;6.10;99.90;;;;;;5022055;28;20190;-95
2022/11/23 06:28:57;;;;;;;5.23;4.73;;;6.10;99.90;;;;;;5008295;28;20625;-92
2022/11/23 06:31:23;;;;;;;4.43;4.03;;;6.00;99.90;;;;;;5021183;28;20170;-92
2022/11/23 06:33:50;;;;;;;4.70;4.30;;;6.00;99.90;;;;;;5030422;28;20171;-85
2022/11/23 06:36:16;;;;;;;5.63;3.90;;;6.00;99.90;;;;;;5009016;28;20184;-93
2022/11/23 06:38:42;;;;;;;4.17;3.77;;;6.00;99.90;;;;;;5020633;28;20184;-95
2022/11/23 06:41:08;;;;;;;4.87;4.47;;;6.00;99.90;;;;;;5002138;28;20180;-96
2022/11/23 06:43:34;;;;;;;4.93;4.53;;;6.00;99.90;;;;;;5017985;28;20591;-95
2022/11/23 06:46:03;;;;;;;7.00;4.87;;;6.10;99.90;;;;;;5027985;28;20190;-89
2022/11/23 06:48:29;;;;;;;4.30;3.93;;;6.10;99.90;;;;;;5019198;28;20153;-84
2022/11/23 06:50:58;;;;;;;3.90;3.67;;;6.10;99.90;;;;;;5031460;28;20196;-92
2022/11/23 06:53:25;;;;;;;3.83;3.53;;;6.10;99.90;;;;;;5000337;28;20179;-93
2022/11/23 06:55:51;;;;;;;2.80;2.60;;;6.10;99.90;;;;;;5017466;28;20189;-89
2022/11/23 06:58:17;;;;;;;7.60;6.20;;;6.10;99.90;;;;;;5016698;28;20651;-93
2022/11/23 07:00:43;;;;;;;8.67;6.87;;;6.10;99.90;;;;;;4998916;28;20552;-89
2022/11/23 07:03:35;;;;;;;6.10;5.50;;;6.20;99.90;;;;;;5000646;28;20181;-90
2022/11/23 07:06:08;;;;;;;7.67;5.30;;;6.20;99.90;;;;;;5015254;28;20219;-89
2022/11/23 07:08:38;;;;;;;6.27;5.23;;;6.30;99.90;;;;;;4998137;28;20176;-84
2022/11/23 07:11:05;;;;;;;6.13;5.37;;;6.30;99.90;;;;;;4998930;28;20178;-84
2022/11/23 07:13:32;;;;;;;6.40;4.77;;;6.30;99.90;;;;;;5014244;28;20167;-83
2022/11/23 07:15:58;;;;;;;7.20;5.80;;;6.30;99.90;;;;;;4997429;28;20642;-90
2022/11/23 07:18:25;;;;;;;4.23;3.83;;;6.30;99.90;;;;;;4999097;28;20177;-96
2022/11/23 07:20:51;;;;;;;7.33;5.17;;;6.30;99.90;;;;;;5018053;28;20219;-84
2022/11/23 07:23:17;;;;;;;2.90;2.70;;;6.40;99.90;;;;;;4995643;28;20178;-86
2022/11/23 07:25:42;;;;;;;3.33;3.00;;;6.40;99.90;;;;;;4997361;28;20345;-88
2022/11/23 07:28:11;;;;;;;1.90;1.80;;;6.40;99.90;;;;;;5017141;28;20185;-87
2022/11/23 07:30:38;;;;;;;1.67;1.57;;;6.30;99.90;;;;;;5000425;28;20177;-87
2022/11/23 07:33:07;;;;;;;1.20;1.20;;;6.40;99.90;;;;;;5019515;28;20185;-88
2022/11/23 07:35:34;;;;;;;1.27;1.17;;;6.40;99.90;;;;;;5017893;28;20633;-89
2022/11/23 07:38:01;;;;;;;1.40;1.40;;;6.30;99.90;;;;;;5017253;28;20201;-87
2022/11/23 07:40:27;;;;;;;1.20;1.20;;;6.40;99.90;;;;;;4999059;28;20544;-87
2022/11/23 07:42:59;;;;;;;1.27;1.27;;;6.40;99.90;;;;;;5009356;28;20190;-87
2022/11/23 07:45:26;;;;;;;1.07;1.07;;;6.40;99.90;;;;;;5020283;28;20214;-88
2022/11/23 07:47:58;;;;;;;1.30;1.30;;;6.50;99.90;;;;;;5032399;28;20171;-87
2022/11/23 07:50:24;;;;;;;1.23;1.23;;;6.60;99.90;;;;;;5007685;28;20253;-87
2022/11/23 07:52:50;;;;;;;1.50;1.40;;;6.60;99.90;;;;;;5015941;28;20185;-86
2022/11/23 07:55:19;;;;;;;1.20;1.20;;;6.60;99.90;;;;;;5016548;28;20173;-87
2022/11/23 07:57:53;;;;;;;2.00;1.90;;;6.50;99.90;;;;;;4998796;28;20232;-87
2022/11/23 08:00:23;;;;;;;1.63;1.53;;;6.50;99.90;;;;;;4997541;28;20262;-87
2022/11/23 08:02:50;;;;;;;1.60;1.50;;;6.50;99.90;;;;;;5016416;28;20865;-87
2022/11/23 08:05:16;;;;;;;1.20;1.13;;;6.60;99.90;;;;;;5016543;28;20211;-88
2022/11/23 08:07:43;;;;;;;1.10;1.10;;;6.70;99.90;;;;;;5021728;28;20665;-88
2022/11/23 08:10:11;;;;;;;1.13;1.13;;;6.80;99.90;;;;;;5032115;28;20187;-87
2022/11/23 08:12:36;;;;;;;1.20;1.20;;;6.70;99.90;;;;;;4999751;28;20183;-88
2022/11/23 08:15:03;;;;;;;1.10;1.10;;;6.70;99.90;;;;;;4997803;28;20184;-88
2022/11/23 08:17:29;;;;;;;1.40;1.40;;;6.70;99.90;;;;;;5014824;28;20680;-87
2022/11/23 08:19:54;;;;;;;1.30;1.20;;;6.70;99.90;;;;;;5014880;28;20177;-87
2022/11/23 08:22:21;;;;;;;1.27;1.27;;;6.70;99.90;;;;;;4996767;28;20181;-86
2022/11/23 08:24:47;;;;;;;1.10;1.10;;;6.70;99.90;;;;;;5014164;28;20198;-88
2022/11/23 08:27:16;;;;;;;1.10;1.10;;;6.70;99.90;;;;;;5014458;28;20193;-88
2022/11/23 08:29:42;;;;;;;1.40;1.30;;;6.80;99.90;;;;;;4997215;28;20174;-87
2022/11/23 08:32:08;;;;;;;1.10;1.10;;;6.70;99.90;;;;;;4999968;28;20209;-87
2022/11/23 08:34:33;;;;;;;1.10;1.10;;;6.70;99.90;;;;;;5001701;28;20223;-88
2022/11/23 08:36:59;;;;;;;1.00;0.93;;;6.70;99.90;;;;;;5003196;28;20169;-88
2022/11/23 08:39:25;;;;;;;1.10;1.10;;;6.70;99.90;;;;;;5031176;28;20183;-87
2022/11/23 08:41:51;;;;;;;1.13;1.13;;;6.80;99.90;;;;;;5041525;28;20185;-88
2022/11/23 08:44:17;;;;;;;1.23;1.23;;;6.80;99.90;;;;;;5032976;28;20184;-87
2022/11/23 08:46:43;;;;;;;1.10;1.10;;;6.80;99.90;;;;;;5019659;28;20188;-87
2022/11/23 08:49:08;;;;;;;1.40;1.30;;;6.90;99.90;;;;;;5019728;28;20679;-87
2022/11/23 08:51:34;;;;;;;1.10;1.10;;;7.00;99.90;;;;;;5018714;28;20177;-87
2022/11/23 08:54:00;;;;;;;1.07;1.07;;;7.00;99.90;;;;;;5000767;28;20536;-88
2022/11/23 08:56:26;;;;;;;1.17;1.17;;;7.10;99.90;;;;;;5000342;28;20194;-88
2022/11/23 08:58:52;;;;;;;0.90;0.90;;;7.20;99.90;;;;;;5000910;28;20276;-87
2022/11/23 09:01:18;;;;;;;0.90;0.90;;;7.30;99.90;;;;;;5001203;28;20544;-87
2022/11/23 09:03:44;;;;;;;0.70;0.70;;;7.30;99.90;;;;;;5001478;28;20611;-87
2022/11/23 09:06:11;;;;;;;0.90;0.90;;;7.40;99.90;;;;;;5018971;28;20223;-88
2022/11/23 09:08:37;;;;;;;1.00;1.00;;;7.50;99.90;;;;;;5001488;28;20566;-87
2022/11/23 09:11:06;;;;;;;0.70;0.70;;;7.50;99.90;;;;;;5020052;28;20615;-87
2022/11/23 09:13:34;;;;;;;0.90;0.90;;;7.50;99.90;;;;;;5022919;28;20183;-88
2022/11/23 09:16:00;;;;;;;0.80;0.80;;;7.50;99.90;;;;;;5023940;28;20177;-87
2022/11/23 09:18:32;;;;;;;1.10;1.10;;;7.50;99.90;;;;;;5020891;28;20242;-88
2022/11/23 09:21:00;;;;;;;0.73;0.60;;;7.50;99.90;;;;;;5031598;28;20157;-88
2022/11/23 09:23:26;;;;;;;0.97;0.97;;;7.60;99.90;;;;;;5018603;28;20173;-88
2022/11/23 09:25:52;;;;;;;0.60;0.60;;;7.50;99.90;;;;;;5017979;28;20653;-88
2022/11/23 09:28:18;;;;;;;0.73;0.73;;;7.60;99.90;;;;;;5000264;28;20190;-88
2022/11/23 09:30:46;;;;;;;1.00;1.00;;;7.60;99.90;;;;;;5017529;28;20177;-88
2022/11/23 09:33:12;;;;;;;0.90;0.90;;;7.70;99.90;;;;;;5017872;28;20184;-88
2022/11/23 09:35:38;;;;;;;0.87;0.87;;;7.70;99.90;;;;;;5017143;28;20207;-87
2022/11/23 09:38:04;;;;;;;1.10;1.10;;;7.60;99.90;;;;;;4999485;28;20285;-88
2022/11/23 09:40:33;;;;;;;0.83;0.83;;;7.70;99.90;;;;;;5000344;28;20659;-89
2022/11/23 09:43:26;;;;;;;0.63;0.63;;;7.80;99.90;;;;;;4999883;28;20224;-88
2022/11/23 09:45:54;;;;;;;0.87;0.87;;;7.70;99.90;;;;;;5017146;28;20598;-88
2022/11/23 09:48:25;;;;;;;0.80;0.80;;;7.70;99.90;;;;;;5004596;28;20220;-88
2022/11/23 09:51:17;;;;;;;0.53;0.53;;;7.80;99.90;;;;;;5018477;28;20174;-87
2022/11/23 09:53:43;;;;;;;2.67;0.73;;;7.80;99.90;;;;;;5031010;28;20173;-87
2022/11/23 09:56:26;;;;;;;0.90;0.90;;;7.90;99.90;;;;;;5018043;28;20173;-88
2022/11/23 09:58:56;;;;;;;0.80;0.80;;;7.90;99.90;;;;;;5017454;28;20610;-87
2022/11/23 10:01:22;;;;;;;0.90;0.90;;;7.80;99.90;;;;;;4999425;28;20184;-88
2022/11/23 10:03:48;;;;;;;0.90;0.90;;;7.90;99.90;;;;;;5016578;28;20621;-88
2022/11/23 10:06:21;;;;;;;1.00;1.00;;;7.90;99.90;;;;;;5017094;28;20210;-88
2022/11/23 10:09:23;;;;;;;1.10;1.10;;;7.90;99.90;;;;;;5016533;28;20170;-88
2022/11/23 10:12:32;;;;;;;0.97;0.97;;;7.90;99.90;;;;;;4999593;28;20187;-87
2022/11/23 10:15:07;;;;;;;1.00;1.00;;;7.80;99.90;;;;;;4998658;28;20188;-87
2022/11/23 10:17:52;;;;;;;0.90;0.90;;;7.90;99.90;;;;;;4998863;28;20170;-88
2022/11/23 10:20:55;;;;;;;1.00;0.90;;;7.90;99.90;;;;;;5016462;28;20164;-88
2022/11/23 10:23:26;;;;;;;1.00;1.00;;;8.00;99.90;;;;;;4983264;28;20208;-88
2022/11/23 10:25:54;;;;;;;0.80;0.80;;;8.00;99.90;;;;;;5023328;28;20201;-87
2022/11/23 10:28:21;;;;;;;2.33;0.80;;;8.00;99.90;;;;;;5037693;28;20211;-88
2022/11/23 10:30:54;;;;;;;0.80;0.80;;;7.90;99.90;;;;;;5034383;28;20200;-89
2022/11/23 10:33:40;;;;;;;0.93;0.77;;;7.80;99.90;;;;;;5022553;28;20192;-88
2022/11/23 10:36:09;;;;;;;0.50;0.50;;;7.90;99.90;;;;;;5017988;28;20215;-88
2022/11/23 10:38:35;;;;;;;1.03;1.03;;;8.00;99.90;;;;;;5018065;28;20176;-87
2022/11/23 10:41:11;;;;;;;0.60;0.60;;;7.90;99.90;;;;;;5001492;28;20185;-88
2022/11/23 10:43:47;;;;;;;0.80;0.80;;;7.90;99.90;;;;;;5020124;28;20177;-89
2022/11/23 10:46:38;;;;;;;0.70;0.70;;;7.90;99.90;;;;;;5002995;28;20205;-88
2022/11/23 10:49:26;;;;;;;0.60;0.60;;;7.90;99.90;;;;;;5035434;28;20178;-88
2022/11/23 10:52:05;;;;;;;1.00;1.00;;;7.90;99.90;;;;;;5017108;28;20176;-87
2022/11/23 10:54:44;;;;;;;1.10;0.97;;;8.00;99.90;;;;;;5076152;23;20240;-88
2022/11/23 10:57:35;;;;;;;0.83;0.83;;;8.00;99.90;;;;;;5022311;28;20225;-88
2022/11/23 11:00:14;;;;;;;1.30;1.30;;;8.00;99.90;;;;;;5020086;28;20684;-88
2022/11/23 11:02:44;;;;;;;2.43;2.33;;;8.00;99.90;;;;;;5039174;28;20183;-89
2022/11/23 11:05:33;;;;;;;3.87;2.93;;;8.10;99.90;;;;;;5036056;28;20223;-87
2022/11/23 11:08:14;;;;;;;6.17;5.33;;;8.10;99.90;;;;;;5036619;28;20183;-88
2022/11/23 11:10:45;;;;;;;9.43;6.10;;;8.20;99.90;;;;;;5021100;28;20644;-88
2022/11/23 11:13:40;;;;;;;4.40;4.00;;;8.40;99.90;;;;;;5018247;28;20178;-87
2022/11/23 11:16:26;;;;;;;2.07;1.67;;;8.60;99.90;;;;;;5017699;28;20619;-88
2022/11/23 11:18:52;;;;;;;1.43;1.43;;;8.60;99.90;;;;;;5017173;28;20178;-88
2022/11/23 11:21:40;;;;;;;0.80;0.80;;;8.60;99.90;;;;;;5019645;28;20180;-88
2022/11/23 11:24:19;;;;;;;1.30;1.30;;;8.60;99.90;;;;;;5036477;28;20196;-88
2022/11/23 11:27:20;;;;;;;0.93;0.93;;;8.60;99.90;;;;;;5038513;28;20179;-87
2022/11/23 11:29:49;;;;;;;1.80;1.70;;;8.40;99.90;;;;;;5018953;28;20202;-88
2022/11/23 11:32:37;;;;;;;3.60;3.30;;;8.40;99.90;;;;;;5022624;28;20180;-87
2022/11/23 11:35:26;;;;;;;4.10;3.80;;;8.50;99.90;;;;;;5039311;28;20189;-88
2022/11/23 11:38:01;;;;;;;5.17;4.67;;;8.60;99.90;;;;;;5021056;28;20205;-87
2022/11/23 11:40:29;;;;;;;5.87;4.37;;;8.70;99.90;;;;;;5038434;28;20639;-88
2022/11/23 11:43:16;;;;;;;4.70;4.40;;;8.80;99.90;;;;;;5038512;28;20201;-88
2022/11/23 11:45:58;;;;;;;2.93;2.73;;;8.80;99.90;;;;;;5039543;28;20196;-89
2022/11/23 11:48:33;;;;;;;4.70;4.30;;;8.90;99.90;;;;;;5041199;28;20177;-87
2022/11/23 11:51:22;;;;;;;4.60;4.20;;;8.80;99.90;;;;;;5018854;28;20177;-88
2022/11/23 11:54:17;;;;;;;4.97;4.57;;;8.70;99.90;;;;;;5018547;28;20227;-88
2022/11/23 11:56:51;;;;;;;4.87;4.37;;;8.80;99.90;;;;;;5008144;28;20198;-88
2022/11/23 11:59:41;;;;;;;3.50;2.37;;;8.90;99.90;;;;;;5035128;28;20707;-88
2022/11/23 12:02:16;;;;;;;1.70;1.60;;;8.80;99.90;;;;;;5018151;28;20184;-88
2022/11/23 12:05:00;;;;;;;1.10;1.10;;;8.80;99.90;;;;;;5017001;28;20247;-88
2022/11/23 12:07:56;;;;;;;2.70;2.50;;;8.70;99.90;;;;;;5018069;28;20190;-88
2022/11/23 12:10:31;;;;;;;2.10;2.00;;;8.70;99.90;;;;;;4988345;28;20198;-87
2022/11/23 12:12:57;;;;;;;1.60;1.60;;;8.80;99.90;;;;;;5038046;28;20227;-88
2022/11/23 12:15:45;;;;;;;1.30;1.30;;;8.80;99.90;;;;;;5034972;28;20628;-88
2022/11/23 12:18:23;;;;;;;1.57;1.30;;;8.90;99.90;;;;;;5038160;28;20210;-88
2022/11/23 12:21:13;;;;;;;1.27;1.20;;;9.00;99.90;;;;;;5029814;28;20339;-89
2022/11/23 12:24:05;;;;;;;1.50;1.40;;;9.00;99.90;;;;;;5054900;28;20221;-86
2022/11/23 12:26:43;;;;;;;2.53;0.90;;;9.10;99.90;;;;;;5022843;28;20573;-87
2022/11/23 12:29:25;;;;;;;3.07;2.70;;;9.10;99.90;;;;;;5035971;28;20324;-87
2022/11/23 12:31:57;;;;;;;6.63;3.60;;;9.20;99.90;;;;;;5042523;28;20161;-87
2022/11/23 12:34:48;;;;;;;4.00;3.50;;;9.30;99.90;;;;;;5034398;28;20534;-89
2022/11/23 12:37:34;;;;;;;4.07;3.77;;;9.30;99.90;;;;;;5034762;28;20217;-88
2022/11/23 12:40:16;;;;;;;4.37;3.97;;;9.30;99.90;;;;;;5018899;28;20175;-87
2022/11/23 12:43:04;;;;;;;4.27;3.87;;;9.10;99.90;;;;;;5034552;28;20180;-88
2022/11/23 12:45:53;;;;;;;4.47;3.67;;;9.20;99.90;;;;;;5033380;28;20304;-88
2022/11/23 12:48:19;;;;;;;4.17;3.73;;;9.10;99.90;;;;;;5017201;28;20174;-88
2022/11/23 12:50:53;;;;;;;5.40;4.10;;;9.20;99.90;;;;;;5034587;28;20212;-87
2022/11/23 12:53:46;;;;;;;5.20;4.07;;;9.20;99.90;;;;;;5015915;28;20636;-87
2022/11/23 12:56:49;;;;;;;4.57;4.17;;;9.10;99.90;;;;;;5033792;28;20545;-87
2022/11/23 12:59:16;;;;;;;4.73;4.27;;;9.20;99.90;;;;;;5035480;28;20495;-88
2022/11/23 13:01:47;;;;;;;9.47;4.40;;;9.20;99.90;;;;;;5018915;28;20176;-89
2022/11/23 13:04:31;;;;;;;4.20;3.80;;;9.20;99.90;;;;;;5035299;28;20153;-87
2022/11/23 13:07:33;;;;;;;5.80;4.17;;;9.20;99.90;;;;;;5036239;28;20172;-87
2022/11/23 13:10:11;;;;;;;6.73;4.30;;;9.10;99.90;;;;;;5006941;28;20191;-86
2022/11/23 13:13:00;;;;;;;4.47;4.00;;;9.10;99.90;;;;;;5019975;28;20265;-88
2022/11/23 13:16:04;;;;;;;4.17;3.73;;;9.10;99.90;;;;;;5025886;28;20191;-88
2022/11/23 13:18:58;;;;;;;4.13;3.80;;;9.00;99.90;;;;;;4983179;28;20183;-88